sensor_id;sensor_type;location;lat;lon;timestamp;P1;durP1;ratioP1;P2;durP2;ratioP2
73599;SDS011;61877;48.246;9.220;2024-01-15T00:02:05;28.13;;;12.47;;
73599;SDS011;61877;48.246;9.220;2024-01-15T00:04:30;28.45;;;11.95;;
73599;SDS011;61877;48.246;9.220;2024-01-15T00:06:56;24.80;;;11.33;;
73599;SDS011;61877;48.246;9.220;2024-01-15T00:09:21;25.27;;;10.83;;
73599;SDS011;61877;48.246;9.220;2024-01-15T00:11:46;23.73;;;11.20;;
73599;SDS011;61877;48.246;9.220;2024-01-15T00:14:12;29.97;;;12.53;;
73599;SDS011;61877;48.246;9.220;2024-01-15T00:16:39;22.17;;;10.23;;
73599;SDS011;61877;48.246;9.220;2024-01-15T00:19:05;22.83;;;10.20;;
73599;SDS011;61877;48.246;9.220;2024-01-15T00:21:30;24.17;;;10.53;;
73599;SDS011;61877;48.246;9.220;2024-01-15T00:23:56;18.07;;;7.73;;
73599;SDS011;61877;48.246;9.220;2024-01-15T00:26:21;24.73;;;10.40;;
73599;SDS011;61877;48.246;9.220;2024-01-15T00:28:46;22.30;;;10.00;;
73599;SDS011;61877;48.246;9.220;2024-01-15T00:31:12;23.40;;;10.17;;
73599;SDS011;61877;48.246;9.220;2024-01-15T00:33:38;21.75;;;9.85;;
73599;SDS011;61877;48.246;9.220;2024-01-15T00:36:04;21.60;;;8.87;;
73599;SDS011;61877;48.246;9.220;2024-01-15T00:38:29;23.23;;;9.75;;
73599;SDS011;61877;48.246;9.220;2024-01-15T00:40:55;21.60;;;9.93;;
73599;SDS011;61877;48.246;9.220;2024-01-15T00:43:20;15.87;;;7.47;;
73599;SDS011;61877;48.246;9.220;2024-01-15T00:45:45;21.23;;;8.73;;
73599;SDS011;61877;48.246;9.220;2024-01-15T00:48:11;23.73;;;9.63;;
73599;SDS011;61877;48.246;9.220;2024-01-15T00:50:38;21.77;;;9.73;;
73599;SDS011;61877;48.246;9.220;2024-01-15T00:53:03;21.58;;;9.80;;
73599;SDS011;61877;48.246;9.220;2024-01-15T00:55:28;23.27;;;10.23;;
73599;SDS011;61877;48.246;9.220;2024-01-15T00:57:54;26.57;;;12.07;;
73599;SDS011;61877;48.246;9.220;2024-01-15T01:00:19;21.03;;;9.77;;
73599;SDS011;61877;48.246;9.220;2024-01-15T01:02:45;22.73;;;9.20;;
73599;SDS011;61877;48.246;9.220;2024-01-15T01:05:10;19.93;;;9.10;;
73599;SDS011;61877;48.246;9.220;2024-01-15T01:07:37;21.23;;;8.80;;
73599;SDS011;61877;48.246;9.220;2024-01-15T01:10:03;24.25;;;10.57;;
73599;SDS011;61877;48.246;9.220;2024-01-15T01:12:28;20.45;;;9.30;;
73599;SDS011;61877;48.246;9.220;2024-01-15T01:14:54;16.77;;;7.43;;
73599;SDS011;61877;48.246;9.220;2024-01-15T01:17:19;22.37;;;9.63;;
73599;SDS011;61877;48.246;9.220;2024-01-15T01:19:45;19.80;;;8.60;;
73599;SDS011;61877;48.246;9.220;2024-01-15T01:22:10;17.07;;;7.23;;
73599;SDS011;61877;48.246;9.220;2024-01-15T01:24:37;19.37;;;8.07;;
73599;SDS011;61877;48.246;9.220;2024-01-15T01:27:02;21.75;;;8.85;;
73599;SDS011;61877;48.246;9.220;2024-01-15T01:29:28;18.83;;;8.53;;
73599;SDS011;61877;48.246;9.220;2024-01-15T01:31:53;19.67;;;8.47;;
73599;SDS011;61877;48.246;9.220;2024-01-15T01:34:18;20.10;;;8.40;;
73599;SDS011;61877;48.246;9.220;2024-01-15T01:36:44;16.63;;;7.30;;
73599;SDS011;61877;48.246;9.220;2024-01-15T01:39:09;19.93;;;7.90;;
73599;SDS011;61877;48.246;9.220;2024-01-15T01:41:38;16.43;;;7.40;;
73599;SDS011;61877;48.246;9.220;2024-01-15T01:44:04;17.42;;;7.53;;
73599;SDS011;61877;48.246;9.220;2024-01-15T01:46:29;18.50;;;8.47;;
73599;SDS011;61877;48.246;9.220;2024-01-15T01:48:56;18.17;;;7.95;;
73599;SDS011;61877;48.246;9.220;2024-01-15T01:51:22;19.65;;;8.10;;
73599;SDS011;61877;48.246;9.220;2024-01-15T01:53:49;17.88;;;7.57;;
73599;SDS011;61877;48.246;9.220;2024-01-15T01:56:15;13.60;;;7.17;;
73599;SDS011;61877;48.246;9.220;2024-01-15T01:58:43;17.42;;;7.38;;
73599;SDS011;61877;48.246;9.220;2024-01-15T02:01:09;19.67;;;8.43;;
73599;SDS011;61877;48.246;9.220;2024-01-15T02:03:35;17.48;;;7.38;;
73599;SDS011;61877;48.246;9.220;2024-01-15T02:06:01;14.37;;;6.50;;
73599;SDS011;61877;48.246;9.220;2024-01-15T02:08:26;16.37;;;7.80;;
73599;SDS011;61877;48.246;9.220;2024-01-15T02:10:52;16.17;;;7.53;;
73599;SDS011;61877;48.246;9.220;2024-01-15T02:13:17;16.17;;;7.60;;
73599;SDS011;61877;48.246;9.220;2024-01-15T02:15:45;16.25;;;7.32;;
73599;SDS011;61877;48.246;9.220;2024-01-15T02:18:10;18.83;;;7.78;;
73599;SDS011;61877;48.246;9.220;2024-01-15T02:20:35;16.60;;;7.33;;
73599;SDS011;61877;48.246;9.220;2024-01-15T02:23:07;14.23;;;6.70;;
73599;SDS011;61877;48.246;9.220;2024-01-15T02:25:33;17.43;;;6.83;;
73599;SDS011;61877;48.246;9.220;2024-01-15T02:27:58;16.27;;;7.10;;
73599;SDS011;61877;48.246;9.220;2024-01-15T02:30:24;18.03;;;8.00;;
73599;SDS011;61877;48.246;9.220;2024-01-15T02:32:50;16.60;;;6.72;;
73599;SDS011;61877;48.246;9.220;2024-01-15T02:35:16;17.33;;;7.57;;
73599;SDS011;61877;48.246;9.220;2024-01-15T02:37:41;15.43;;;6.63;;
73599;SDS011;61877;48.246;9.220;2024-01-15T02:40:09;16.97;;;6.90;;
73599;SDS011;61877;48.246;9.220;2024-01-15T02:42:35;15.38;;;7.13;;
73599;SDS011;61877;48.246;9.220;2024-01-15T02:45:00;14.83;;;6.20;;
73599;SDS011;61877;48.246;9.220;2024-01-15T02:47:25;14.33;;;6.60;;
73599;SDS011;61877;48.246;9.220;2024-01-15T02:49:51;15.63;;;7.20;;
73599;SDS011;61877;48.246;9.220;2024-01-15T02:52:16;14.13;;;6.85;;
73599;SDS011;61877;48.246;9.220;2024-01-15T02:54:42;13.20;;;6.40;;
73599;SDS011;61877;48.246;9.220;2024-01-15T02:57:09;14.50;;;6.33;;
73599;SDS011;61877;48.246;9.220;2024-01-15T02:59:34;12.75;;;6.13;;
73599;SDS011;61877;48.246;9.220;2024-01-15T03:01:59;13.80;;;6.53;;
73599;SDS011;61877;48.246;9.220;2024-01-15T03:04:25;12.93;;;6.40;;
73599;SDS011;61877;48.246;9.220;2024-01-15T03:06:50;17.87;;;6.47;;
73599;SDS011;61877;48.246;9.220;2024-01-15T03:09:15;12.97;;;6.20;;
73599;SDS011;61877;48.246;9.220;2024-01-15T03:11:41;12.30;;;6.40;;
73599;SDS011;61877;48.246;9.220;2024-01-15T03:14:07;13.87;;;5.60;;
73599;SDS011;61877;48.246;9.220;2024-01-15T03:16:33;13.93;;;5.60;;
73599;SDS011;61877;48.246;9.220;2024-01-15T03:18:58;13.07;;;5.47;;
73599;SDS011;61877;48.246;9.220;2024-01-15T03:21:23;13.20;;;5.83;;
73599;SDS011;61877;48.246;9.220;2024-01-15T03:23:49;13.65;;;5.90;;
73599;SDS011;61877;48.246;9.220;2024-01-15T03:26:14;13.20;;;5.80;;
73599;SDS011;61877;48.246;9.220;2024-01-15T03:28:39;12.23;;;5.63;;
73599;SDS011;61877;48.246;9.220;2024-01-15T03:31:06;13.83;;;6.03;;
73599;SDS011;61877;48.246;9.220;2024-01-15T03:33:32;12.98;;;6.13;;
73599;SDS011;61877;48.246;9.220;2024-01-15T03:35:58;14.37;;;6.70;;
73599;SDS011;61877;48.246;9.220;2024-01-15T03:38:24;11.63;;;5.72;;
73599;SDS011;61877;48.246;9.220;2024-01-15T03:40:49;12.83;;;5.53;;
73599;SDS011;61877;48.246;9.220;2024-01-15T03:43:14;13.63;;;5.80;;
73599;SDS011;61877;48.246;9.220;2024-01-15T03:45:40;13.13;;;6.33;;
73599;SDS011;61877;48.246;9.220;2024-01-15T03:48:07;13.55;;;6.10;;
73599;SDS011;61877;48.246;9.220;2024-01-15T03:50:32;15.32;;;6.20;;
73599;SDS011;61877;48.246;9.220;2024-01-15T03:52:57;14.43;;;6.70;;
73599;SDS011;61877;48.246;9.220;2024-01-15T03:55:23;14.53;;;6.00;;
73599;SDS011;61877;48.246;9.220;2024-01-15T03:57:48;14.63;;;6.53;;
73599;SDS011;61877;48.246;9.220;2024-01-15T04:00:14;14.47;;;5.70;;
73599;SDS011;61877;48.246;9.220;2024-01-15T04:02:40;13.20;;;6.03;;
73599;SDS011;61877;48.246;9.220;2024-01-15T04:05:07;13.60;;;6.83;;
73599;SDS011;61877;48.246;9.220;2024-01-15T04:07:32;14.45;;;6.40;;
73599;SDS011;61877;48.246;9.220;2024-01-15T04:09:57;14.47;;;6.33;;
73599;SDS011;61877;48.246;9.220;2024-01-15T04:12:23;16.07;;;6.90;;
73599;SDS011;61877;48.246;9.220;2024-01-15T04:14:48;14.43;;;5.90;;
73599;SDS011;61877;48.246;9.220;2024-01-15T04:17:13;14.13;;;6.27;;
73599;SDS011;61877;48.246;9.220;2024-01-15T04:19:39;13.50;;;5.60;;
73599;SDS011;61877;48.246;9.220;2024-01-15T04:22:06;14.10;;;6.40;;
73599;SDS011;61877;48.246;9.220;2024-01-15T04:24:31;13.30;;;6.60;;
73599;SDS011;61877;48.246;9.220;2024-01-15T04:26:57;15.03;;;6.07;;
73599;SDS011;61877;48.246;9.220;2024-01-15T04:29:22;14.77;;;6.35;;
73599;SDS011;61877;48.246;9.220;2024-01-15T04:31:47;13.80;;;6.80;;
73599;SDS011;61877;48.246;9.220;2024-01-15T04:34:13;13.97;;;6.30;;
73599;SDS011;61877;48.246;9.220;2024-01-15T04:36:38;15.47;;;6.97;;
73599;SDS011;61877;48.246;9.220;2024-01-15T04:39:05;14.73;;;6.25;;
73599;SDS011;61877;48.246;9.220;2024-01-15T04:41:31;17.13;;;6.65;;
73599;SDS011;61877;48.246;9.220;2024-01-15T04:43:56;15.57;;;6.83;;
73599;SDS011;61877;48.246;9.220;2024-01-15T04:46:21;15.27;;;6.87;;
73599;SDS011;61877;48.246;9.220;2024-01-15T04:48:47;14.87;;;6.50;;
73599;SDS011;61877;48.246;9.220;2024-01-15T04:51:12;14.77;;;6.90;;
73599;SDS011;61877;48.246;9.220;2024-01-15T04:53:37;15.97;;;7.30;;
73599;SDS011;61877;48.246;9.220;2024-01-15T04:56:04;15.93;;;6.90;;
73599;SDS011;61877;48.246;9.220;2024-01-15T04:58:30;15.10;;;6.85;;
73599;SDS011;61877;48.246;9.220;2024-01-15T05:00:55;15.83;;;6.83;;
73599;SDS011;61877;48.246;9.220;2024-01-15T05:03:21;14.33;;;6.63;;
73599;SDS011;61877;48.246;9.220;2024-01-15T05:05:46;15.70;;;6.73;;
73599;SDS011;61877;48.246;9.220;2024-01-15T05:08:11;19.47;;;8.47;;
73599;SDS011;61877;48.246;9.220;2024-01-15T05:10:37;17.90;;;7.47;;
73599;SDS011;61877;48.246;9.220;2024-01-15T05:13:03;18.27;;;7.70;;
73599;SDS011;61877;48.246;9.220;2024-01-15T05:15:29;16.48;;;7.75;;
73599;SDS011;61877;48.246;9.220;2024-01-15T05:17:54;17.53;;;7.97;;
73599;SDS011;61877;48.246;9.220;2024-01-15T05:20:20;17.83;;;7.80;;
73599;SDS011;61877;48.246;9.220;2024-01-15T05:22:45;16.47;;;7.33;;
73599;SDS011;61877;48.246;9.220;2024-01-15T05:25:10;15.83;;;7.13;;
73599;SDS011;61877;48.246;9.220;2024-01-15T05:27:36;20.80;;;8.55;;
73599;SDS011;61877;48.246;9.220;2024-01-15T05:30:03;19.33;;;8.07;;
73599;SDS011;61877;48.246;9.220;2024-01-15T05:32:29;16.92;;;7.28;;
73599;SDS011;61877;48.246;9.220;2024-01-15T05:34:54;18.07;;;7.90;;
73599;SDS011;61877;48.246;9.220;2024-01-15T05:37:20;18.40;;;7.77;;
73599;SDS011;61877;48.246;9.220;2024-01-15T05:39:45;16.23;;;7.13;;
73599;SDS011;61877;48.246;9.220;2024-01-15T05:42:10;13.50;;;6.77;;
73599;SDS011;61877;48.246;9.220;2024-01-15T05:44:37;16.17;;;7.57;;
73599;SDS011;61877;48.246;9.220;2024-01-15T05:47:03;16.70;;;8.07;;
73599;SDS011;61877;48.246;9.220;2024-01-15T05:49:29;14.73;;;7.03;;
73599;SDS011;61877;48.246;9.220;2024-01-15T05:51:55;15.23;;;6.80;;
73599;SDS011;61877;48.246;9.220;2024-01-15T05:54:20;16.40;;;7.30;;
73599;SDS011;61877;48.246;9.220;2024-01-15T05:56:45;17.57;;;7.70;;
73599;SDS011;61877;48.246;9.220;2024-01-15T05:59:11;19.60;;;7.37;;
73599;SDS011;61877;48.246;9.220;2024-01-15T06:01:36;14.33;;;7.60;;
73599;SDS011;61877;48.246;9.220;2024-01-15T06:04:03;16.40;;;6.68;;
73599;SDS011;61877;48.246;9.220;2024-01-15T06:06:31;14.97;;;7.23;;
73599;SDS011;61877;48.246;9.220;2024-01-15T06:08:57;14.55;;;6.70;;
73599;SDS011;61877;48.246;9.220;2024-01-15T06:11:22;15.60;;;7.10;;
73599;SDS011;61877;48.246;9.220;2024-01-15T06:13:47;15.03;;;6.57;;
73599;SDS011;61877;48.246;9.220;2024-01-15T06:16:13;14.38;;;6.45;;
73599;SDS011;61877;48.246;9.220;2024-01-15T06:18:39;15.73;;;7.33;;
73599;SDS011;61877;48.246;9.220;2024-01-15T06:21:06;14.03;;;6.03;;
73599;SDS011;61877;48.246;9.220;2024-01-15T06:23:31;13.47;;;6.53;;
73599;SDS011;61877;48.246;9.220;2024-01-15T06:25:57;11.20;;;5.82;;
73599;SDS011;61877;48.246;9.220;2024-01-15T06:28:22;11.93;;;6.20;;
73599;SDS011;61877;48.246;9.220;2024-01-15T06:30:47;14.67;;;6.03;;
73599;SDS011;61877;48.246;9.220;2024-01-15T06:33:13;14.07;;;6.38;;
73599;SDS011;61877;48.246;9.220;2024-01-15T06:35:38;12.03;;;5.70;;
73599;SDS011;61877;48.246;9.220;2024-01-15T06:38:05;13.03;;;5.10;;
73599;SDS011;61877;48.246;9.220;2024-01-15T06:40:30;11.85;;;5.50;;
73599;SDS011;61877;48.246;9.220;2024-01-15T06:42:56;11.80;;;5.90;;
73599;SDS011;61877;48.246;9.220;2024-01-15T06:45:21;12.20;;;6.10;;
73599;SDS011;61877;48.246;9.220;2024-01-15T06:47:46;9.47;;;5.07;;
73599;SDS011;61877;48.246;9.220;2024-01-15T06:50:12;8.90;;;4.53;;
73599;SDS011;61877;48.246;9.220;2024-01-15T06:52:37;10.80;;;4.97;;
73599;SDS011;61877;48.246;9.220;2024-01-15T06:55:04;10.30;;;4.93;;
73599;SDS011;61877;48.246;9.220;2024-01-15T06:57:30;10.52;;;4.90;;
73599;SDS011;61877;48.246;9.220;2024-01-15T06:59:55;10.43;;;4.33;;
73599;SDS011;61877;48.246;9.220;2024-01-15T07:02:21;10.27;;;4.90;;
73599;SDS011;61877;48.246;9.220;2024-01-15T07:04:46;9.70;;;4.80;;
73599;SDS011;61877;48.246;9.220;2024-01-15T07:07:12;10.00;;;5.00;;
73599;SDS011;61877;48.246;9.220;2024-01-15T07:09:37;11.70;;;5.80;;
73599;SDS011;61877;48.246;9.220;2024-01-15T07:12:04;9.48;;;5.10;;
73599;SDS011;61877;48.246;9.220;2024-01-15T07:14:30;12.48;;;5.35;;
73599;SDS011;61877;48.246;9.220;2024-01-15T07:16:55;11.47;;;5.03;;
73599;SDS011;61877;48.246;9.220;2024-01-15T07:19:20;11.90;;;5.80;;
73599;SDS011;61877;48.246;9.220;2024-01-15T07:21:46;10.20;;;5.07;;
73599;SDS011;61877;48.246;9.220;2024-01-15T07:24:11;10.97;;;4.87;;
73599;SDS011;61877;48.246;9.220;2024-01-15T07:26:36;10.18;;;5.30;;
73599;SDS011;61877;48.246;9.220;2024-01-15T07:29:03;10.93;;;4.83;;
73599;SDS011;61877;48.246;9.220;2024-01-15T07:31:29;11.52;;;5.47;;
73599;SDS011;61877;48.246;9.220;2024-01-15T07:33:54;10.50;;;5.20;;
73599;SDS011;61877;48.246;9.220;2024-01-15T07:36:20;8.60;;;4.47;;
73599;SDS011;61877;48.246;9.220;2024-01-15T07:38:45;10.93;;;3.87;;
73599;SDS011;61877;48.246;9.220;2024-01-15T07:41:10;9.07;;;3.93;;
73599;SDS011;61877;48.246;9.220;2024-01-15T07:43:36;9.35;;;3.85;;
73599;SDS011;61877;48.246;9.220;2024-01-15T07:46:02;8.07;;;3.80;;
73599;SDS011;61877;48.246;9.220;2024-01-15T07:48:28;10.17;;;3.90;;
73599;SDS011;61877;48.246;9.220;2024-01-15T07:50:53;7.95;;;4.00;;
73599;SDS011;61877;48.246;9.220;2024-01-15T07:53:19;7.43;;;3.77;;
73599;SDS011;61877;48.246;9.220;2024-01-15T07:55:44;8.73;;;4.10;;
73599;SDS011;61877;48.246;9.220;2024-01-15T07:58:10;8.00;;;3.80;;
73599;SDS011;61877;48.246;9.220;2024-01-15T08:00:35;9.20;;;4.17;;
73599;SDS011;61877;48.246;9.220;2024-01-15T08:03:02;9.45;;;4.20;;
73599;SDS011;61877;48.246;9.220;2024-01-15T08:05:27;8.90;;;3.67;;
73599;SDS011;61877;48.246;9.220;2024-01-15T08:07:52;7.40;;;3.83;;
73599;SDS011;61877;48.246;9.220;2024-01-15T08:10:18;7.63;;;3.50;;
73599;SDS011;61877;48.246;9.220;2024-01-15T08:12:43;7.60;;;3.67;;
73599;SDS011;61877;48.246;9.220;2024-01-15T08:15:08;7.13;;;3.57;;
73599;SDS011;61877;48.246;9.220;2024-01-15T08:17:34;7.73;;;4.20;;
73599;SDS011;61877;48.246;9.220;2024-01-15T08:20:01;7.28;;;3.88;;
73599;SDS011;61877;48.246;9.220;2024-01-15T08:22:26;7.47;;;3.70;;
73599;SDS011;61877;48.246;9.220;2024-01-15T08:24:51;8.77;;;3.60;;
73599;SDS011;61877;48.246;9.220;2024-01-15T08:27:17;8.03;;;3.67;;
73599;SDS011;61877;48.246;9.220;2024-01-15T08:29:42;8.00;;;3.70;;
73599;SDS011;61877;48.246;9.220;2024-01-15T08:32:08;8.45;;;4.28;;
73599;SDS011;61877;48.246;9.220;2024-01-15T08:34:33;7.73;;;3.90;;
73599;SDS011;61877;48.246;9.220;2024-01-15T08:37:00;10.30;;;4.00;;
73599;SDS011;61877;48.246;9.220;2024-01-15T08:39:25;8.15;;;3.88;;
73599;SDS011;61877;48.246;9.220;2024-01-15T08:41:50;9.70;;;4.43;;
73599;SDS011;61877;48.246;9.220;2024-01-15T08:44:16;7.67;;;3.80;;
73599;SDS011;61877;48.246;9.220;2024-01-15T08:46:41;8.43;;;3.83;;
73599;SDS011;61877;48.246;9.220;2024-01-15T08:49:06;8.53;;;4.13;;
73599;SDS011;61877;48.246;9.220;2024-01-15T08:51:32;8.13;;;3.80;;
73599;SDS011;61877;48.246;9.220;2024-01-15T08:53:59;7.10;;;3.60;;
73599;SDS011;61877;48.246;9.220;2024-01-15T08:56:24;6.90;;;3.50;;
73599;SDS011;61877;48.246;9.220;2024-01-15T08:58:49;7.80;;;3.60;;
73599;SDS011;61877;48.246;9.220;2024-01-15T09:01:15;7.63;;;3.67;;
73599;SDS011;61877;48.246;9.220;2024-01-15T09:03:40;7.37;;;3.30;;
73599;SDS011;61877;48.246;9.220;2024-01-15T09:06:06;7.37;;;3.50;;
73599;SDS011;61877;48.246;9.220;2024-01-15T09:08:31;6.57;;;3.05;;
73599;SDS011;61877;48.246;9.220;2024-01-15T09:10:58;7.70;;;3.40;;
73599;SDS011;61877;48.246;9.220;2024-01-15T09:13:26;7.10;;;3.40;;
73599;SDS011;61877;48.246;9.220;2024-01-15T09:15:56;7.53;;;3.30;;
73599;SDS011;61877;48.246;9.220;2024-01-15T09:18:24;7.72;;;3.60;;
73599;SDS011;61877;48.246;9.220;2024-01-15T09:20:49;6.77;;;3.40;;
73599;SDS011;61877;48.246;9.220;2024-01-15T09:23:14;8.23;;;3.50;;
73599;SDS011;61877;48.246;9.220;2024-01-15T09:25:40;7.20;;;3.20;;
73599;SDS011;61877;48.246;9.220;2024-01-15T09:28:07;7.73;;;3.67;;
73599;SDS011;61877;48.246;9.220;2024-01-15T09:30:32;7.03;;;2.88;;
73599;SDS011;61877;48.246;9.220;2024-01-15T09:32:57;7.57;;;3.47;;
73599;SDS011;61877;48.246;9.220;2024-01-15T09:35:23;8.03;;;3.77;;
73599;SDS011;61877;48.246;9.220;2024-01-15T09:37:49;7.47;;;3.20;;
73599;SDS011;61877;48.246;9.220;2024-01-15T09:40:15;7.43;;;3.30;;
73599;SDS011;61877;48.246;9.220;2024-01-15T09:42:40;7.13;;;3.20;;
73599;SDS011;61877;48.246;9.220;2024-01-15T09:45:07;7.05;;;3.15;;
73599;SDS011;61877;48.246;9.220;2024-01-15T09:47:34;7.03;;;2.90;;
73599;SDS011;61877;48.246;9.220;2024-01-15T09:49:59;8.23;;;3.55;;
73599;SDS011;61877;48.246;9.220;2024-01-15T09:52:25;7.70;;;3.27;;
73599;SDS011;61877;48.246;9.220;2024-01-15T09:54:50;7.67;;;3.70;;
73599;SDS011;61877;48.246;9.220;2024-01-15T10:09:57;6.50;;;2.70;;
73599;SDS011;61877;48.246;9.220;2024-01-15T10:15:46;7.47;;;3.13;;
73599;SDS011;61877;48.246;9.220;2024-01-15T10:35:22;6.75;;;3.10;;
73599;SDS011;61877;48.246;9.220;2024-01-15T10:37:50;6.43;;;2.50;;
73599;SDS011;61877;48.246;9.220;2024-01-15T10:40:19;7.03;;;3.00;;
73599;SDS011;61877;48.246;9.220;2024-01-15T10:42:52;7.22;;;3.03;;
73599;SDS011;61877;48.246;9.220;2024-01-15T10:45:17;7.00;;;3.07;;
73599;SDS011;61877;48.246;9.220;2024-01-15T10:47:44;7.57;;;3.20;;
73599;SDS011;61877;48.246;9.220;2024-01-15T10:50:10;6.57;;;3.20;;
73599;SDS011;61877;48.246;9.220;2024-01-15T10:52:36;7.03;;;3.00;;
73599;SDS011;61877;48.246;9.220;2024-01-15T10:55:02;7.18;;;3.33;;
73599;SDS011;61877;48.246;9.220;2024-01-15T10:57:28;7.00;;;3.08;;
73599;SDS011;61877;48.246;9.220;2024-01-15T10:59:54;6.70;;;3.20;;
73599;SDS011;61877;48.246;9.220;2024-01-15T11:02:22;6.20;;;3.00;;
73599;SDS011;61877;48.246;9.220;2024-01-15T11:04:49;8.55;;;3.33;;
73599;SDS011;61877;48.246;9.220;2024-01-15T11:07:14;6.87;;;3.30;;
73599;SDS011;61877;48.246;9.220;2024-01-15T11:09:40;6.90;;;3.15;;
73599;SDS011;61877;48.246;9.220;2024-01-15T11:12:06;6.50;;;3.03;;
73599;SDS011;61877;48.246;9.220;2024-01-15T11:14:34;7.27;;;3.00;;
73599;SDS011;61877;48.246;9.220;2024-01-15T11:16:59;8.77;;;2.67;;
73599;SDS011;61877;48.246;9.220;2024-01-15T11:19:25;7.70;;;3.60;;
73599;SDS011;61877;48.246;9.220;2024-01-15T11:21:51;7.00;;;3.57;;
73599;SDS011;61877;48.246;9.220;2024-01-15T11:27:06;7.00;;;3.20;;
73599;SDS011;61877;48.246;9.220;2024-01-15T11:29:33;7.22;;;3.33;;
73599;SDS011;61877;48.246;9.220;2024-01-15T11:31:59;8.90;;;3.23;;
73599;SDS011;61877;48.246;9.220;2024-01-15T11:37:22;7.28;;;3.67;;
73599;SDS011;61877;48.246;9.220;2024-01-15T11:39:47;6.90;;;3.40;;
73599;SDS011;61877;48.246;9.220;2024-01-15T11:42:13;6.73;;;3.10;;
73599;SDS011;61877;48.246;9.220;2024-01-15T11:44:39;6.65;;;3.45;;
73599;SDS011;61877;48.246;9.220;2024-01-15T11:47:05;6.70;;;3.13;;
73599;SDS011;61877;48.246;9.220;2024-01-15T11:49:34;6.90;;;3.42;;
73599;SDS011;61877;48.246;9.220;2024-01-15T11:52:25;7.10;;;3.28;;
73599;SDS011;61877;48.246;9.220;2024-01-15T11:54:52;7.18;;;3.53;;
73599;SDS011;61877;48.246;9.220;2024-01-15T11:57:25;7.03;;;3.37;;
73599;SDS011;61877;48.246;9.220;2024-01-15T11:59:57;6.97;;;3.05;;
73599;SDS011;61877;48.246;9.220;2024-01-15T12:02:22;7.30;;;3.27;;
73599;SDS011;61877;48.246;9.220;2024-01-15T12:04:48;6.35;;;2.97;;
73599;SDS011;61877;48.246;9.220;2024-01-15T12:07:13;9.20;;;3.40;;
73599;SDS011;61877;48.246;9.220;2024-01-15T12:09:43;6.63;;;3.07;;
73599;SDS011;61877;48.246;9.220;2024-01-15T12:12:09;7.07;;;3.40;;
73599;SDS011;61877;48.246;9.220;2024-01-15T12:14:42;7.82;;;3.38;;
73599;SDS011;61877;48.246;9.220;2024-01-15T12:17:08;7.40;;;3.60;;
73599;SDS011;61877;48.246;9.220;2024-01-15T12:19:33;7.17;;;3.10;;
73599;SDS011;61877;48.246;9.220;2024-01-15T12:21:59;7.18;;;3.53;;
73599;SDS011;61877;48.246;9.220;2024-01-15T12:24:24;7.60;;;3.77;;
73599;SDS011;61877;48.246;9.220;2024-01-15T12:26:51;7.30;;;3.43;;
73599;SDS011;61877;48.246;9.220;2024-01-15T12:29:17;7.60;;;3.60;;
73599;SDS011;61877;48.246;9.220;2024-01-15T12:31:42;7.40;;;3.63;;
73599;SDS011;61877;48.246;9.220;2024-01-15T12:34:08;7.43;;;3.50;;
73599;SDS011;61877;48.246;9.220;2024-01-15T12:36:33;8.00;;;3.80;;
73599;SDS011;61877;48.246;9.220;2024-01-15T12:38:59;7.43;;;3.63;;
73599;SDS011;61877;48.246;9.220;2024-01-15T12:41:24;8.27;;;3.83;;
73599;SDS011;61877;48.246;9.220;2024-01-15T12:43:51;8.95;;;3.42;;
73599;SDS011;61877;48.246;9.220;2024-01-15T12:46:16;7.13;;;3.50;;
73599;SDS011;61877;48.246;9.220;2024-01-15T12:48:42;7.85;;;3.88;;
73599;SDS011;61877;48.246;9.220;2024-01-15T12:51:08;8.90;;;4.00;;
73599;SDS011;61877;48.246;9.220;2024-01-15T12:53:33;7.55;;;3.53;;
73599;SDS011;61877;48.246;9.220;2024-01-15T12:55:58;8.17;;;3.47;;
73599;SDS011;61877;48.246;9.220;2024-01-15T12:58:24;8.07;;;4.00;;
73599;SDS011;61877;48.246;9.220;2024-01-15T13:00:50;7.73;;;3.47;;
73599;SDS011;61877;48.246;9.220;2024-01-15T13:03:16;7.50;;;3.80;;
73599;SDS011;61877;48.246;9.220;2024-01-15T13:05:41;7.83;;;3.60;;
73599;SDS011;61877;48.246;9.220;2024-01-15T13:08:07;7.90;;;4.13;;
73599;SDS011;61877;48.246;9.220;2024-01-15T13:10:32;7.90;;;4.03;;
73599;SDS011;61877;48.246;9.220;2024-01-15T13:12:57;8.85;;;3.90;;
73599;SDS011;61877;48.246;9.220;2024-01-15T13:15:23;7.80;;;3.60;;
73599;SDS011;61877;48.246;9.220;2024-01-15T13:17:49;7.87;;;3.60;;
73599;SDS011;61877;48.246;9.220;2024-01-15T13:20:15;8.60;;;3.92;;
73599;SDS011;61877;48.246;9.220;2024-01-15T13:22:40;8.33;;;4.00;;
73599;SDS011;61877;48.246;9.220;2024-01-15T13:25:06;9.67;;;4.17;;
73599;SDS011;61877;48.246;9.220;2024-01-15T13:27:32;8.50;;;4.18;;
73599;SDS011;61877;48.246;9.220;2024-01-15T13:29:57;10.50;;;4.03;;
73599;SDS011;61877;48.246;9.220;2024-01-15T13:32:23;8.73;;;3.83;;
73599;SDS011;61877;48.246;9.220;2024-01-15T13:34:51;10.07;;;4.27;;
73599;SDS011;61877;48.246;9.220;2024-01-15T13:37:16;13.02;;;6.88;;
73599;SDS011;61877;48.246;9.220;2024-01-15T13:39:42;9.27;;;3.73;;
73599;SDS011;61877;48.246;9.220;2024-01-15T13:42:07;9.10;;;3.85;;
73599;SDS011;61877;48.246;9.220;2024-01-15T13:44:34;8.90;;;4.13;;
73599;SDS011;61877;48.246;9.220;2024-01-15T13:46:59;8.32;;;4.10;;
73599;SDS011;61877;48.246;9.220;2024-01-15T13:49:24;8.63;;;3.50;;
73599;SDS011;61877;48.246;9.220;2024-01-15T13:51:51;7.90;;;3.77;;
73599;SDS011;61877;48.246;9.220;2024-01-15T13:54:16;7.85;;;3.90;;
73599;SDS011;61877;48.246;9.220;2024-01-15T13:56:42;9.13;;;4.73;;
73599;SDS011;61877;48.246;9.220;2024-01-15T13:59:07;12.07;;;4.70;;
73599;SDS011;61877;48.246;9.220;2024-01-15T14:01:32;8.80;;;4.10;;
73599;SDS011;61877;48.246;9.220;2024-01-15T14:03:58;8.97;;;4.40;;
73599;SDS011;61877;48.246;9.220;2024-01-15T14:06:23;10.85;;;4.43;;
73599;SDS011;61877;48.246;9.220;2024-01-15T14:08:50;8.90;;;4.57;;
73599;SDS011;61877;48.246;9.220;2024-01-15T14:11:15;12.98;;;5.22;;
73599;SDS011;61877;48.246;9.220;2024-01-15T14:13:41;11.43;;;5.10;;
73599;SDS011;61877;48.246;9.220;2024-01-15T14:16:06;9.53;;;4.60;;
73599;SDS011;61877;48.246;9.220;2024-01-15T14:18:32;12.27;;;5.47;;
73599;SDS011;61877;48.246;9.220;2024-01-15T14:20:57;8.90;;;4.60;;
73599;SDS011;61877;48.246;9.220;2024-01-15T14:23:22;9.13;;;4.27;;
73599;SDS011;61877;48.246;9.220;2024-01-15T14:25:49;10.00;;;5.17;;
73599;SDS011;61877;48.246;9.220;2024-01-15T14:28:14;9.43;;;4.22;;
73599;SDS011;61877;48.246;9.220;2024-01-15T14:30:40;10.63;;;4.90;;
73599;SDS011;61877;48.246;9.220;2024-01-15T14:33:05;9.27;;;4.23;;
73599;SDS011;61877;48.246;9.220;2024-01-15T14:35:30;10.87;;;4.43;;
73599;SDS011;61877;48.246;9.220;2024-01-15T14:37:56;15.97;;;8.37;;
73599;SDS011;61877;48.246;9.220;2024-01-15T14:40:21;10.13;;;5.00;;
73599;SDS011;61877;48.246;9.220;2024-01-15T14:42:48;10.53;;;4.87;;
73599;SDS011;61877;48.246;9.220;2024-01-15T14:45:15;10.27;;;5.25;;
73599;SDS011;61877;48.246;9.220;2024-01-15T14:47:40;10.87;;;5.07;;
73599;SDS011;61877;48.246;9.220;2024-01-15T14:50:09;9.30;;;4.70;;
73599;SDS011;61877;48.246;9.220;2024-01-15T14:52:35;9.63;;;4.50;;
73599;SDS011;61877;48.246;9.220;2024-01-15T14:55:01;11.60;;;5.40;;
73599;SDS011;61877;48.246;9.220;2024-01-15T14:57:27;10.75;;;5.47;;
73599;SDS011;61877;48.246;9.220;2024-01-15T14:59:53;10.43;;;4.97;;
73599;SDS011;61877;48.246;9.220;2024-01-15T15:02:19;10.70;;;5.07;;
73599;SDS011;61877;48.246;9.220;2024-01-15T15:04:47;11.15;;;4.72;;
73599;SDS011;61877;48.246;9.220;2024-01-15T15:07:13;11.70;;;5.77;;
73599;SDS011;61877;48.246;9.220;2024-01-15T15:09:38;10.03;;;4.63;;